sensor_id;sensor_type;location;lat;lon;timestamp;P1;durP1;ratioP1;P2;durP2;ratioP2
146;SDS011;45999;48.808;9.182;2022-10-31T00:00:59;10.00;;;5.97;;
146;SDS011;45999;48.808;9.182;2022-10-31T00:03:25;13.33;;;6.80;;
146;SDS011;45999;48.808;9.182;2022-10-31T00:05:52;12.57;;;6.60;;
146;SDS011;45999;48.808;9.182;2022-10-31T00:08:18;10.50;;;6.53;;
146;SDS011;45999;48.808;9.182;2022-10-31T00:10:45;9.40;;;6.13;;
146;SDS011;45999;48.808;9.182;2022-10-31T00:13:13;12.43;;;6.60;;
146;SDS011;45999;48.808;9.182;2022-10-31T00:15:40;9.67;;;6.70;;
146;SDS011;45999;48.808;9.182;2022-10-31T00:18:07;9.07;;;5.83;;
146;SDS011;45999;48.808;9.182;2022-10-31T00:20:35;9.77;;;6.27;;
146;SDS011;45999;48.808;9.182;2022-10-31T00:23:02;9.73;;;6.07;;
146;SDS011;45999;48.808;9.182;2022-10-31T00:25:32;9.23;;;6.67;;
146;SDS011;45999;48.808;9.182;2022-10-31T00:28:00;13.60;;;7.03;;
146;SDS011;45999;48.808;9.182;2022-10-31T00:30:27;11.27;;;6.80;;
146;SDS011;45999;48.808;9.182;2022-10-31T00:32:53;14.23;;;7.17;;
146;SDS011;45999;48.808;9.182;2022-10-31T00:35:20;13.50;;;7.20;;
146;SDS011;45999;48.808;9.182;2022-10-31T00:37:46;12.23;;;7.13;;
146;SDS011;45999;48.808;9.182;2022-10-31T00:40:13;12.40;;;7.47;;
146;SDS011;45999;48.808;9.182;2022-10-31T00:42:40;10.70;;;7.10;;
146;SDS011;45999;48.808;9.182;2022-10-31T00:45:09;11.93;;;7.00;;
146;SDS011;45999;48.808;9.182;2022-10-31T00:47:37;12.00;;;6.87;;
146;SDS011;45999;48.808;9.182;2022-10-31T00:50:06;15.67;;;7.50;;
146;SDS011;45999;48.808;9.182;2022-10-31T00:52:33;9.73;;;6.90;;
146;SDS011;45999;48.808;9.182;2022-10-31T00:55:00;14.97;;;7.73;;
146;SDS011;45999;48.808;9.182;2022-10-31T00:57:26;12.13;;;7.20;;
146;SDS011;45999;48.808;9.182;2022-10-31T00:59:53;11.53;;;6.53;;
146;SDS011;45999;48.808;9.182;2022-10-31T01:02:19;12.30;;;7.27;;
146;SDS011;45999;48.808;9.182;2022-10-31T01:04:45;9.53;;;7.03;;
146;SDS011;45999;48.808;9.182;2022-10-31T01:07:12;12.00;;;6.83;;
146;SDS011;45999;48.808;9.182;2022-10-31T01:09:39;10.83;;;6.77;;
146;SDS011;45999;48.808;9.182;2022-10-31T01:12:05;13.73;;;6.87;;
146;SDS011;45999;48.808;9.182;2022-10-31T01:14:32;12.07;;;6.57;;
146;SDS011;45999;48.808;9.182;2022-10-31T01:16:58;13.90;;;7.10;;
146;SDS011;45999;48.808;9.182;2022-10-31T01:19:24;11.20;;;7.20;;
146;SDS011;45999;48.808;9.182;2022-10-31T01:21:53;8.93;;;6.37;;
146;SDS011;45999;48.808;9.182;2022-10-31T01:24:20;9.50;;;6.70;;
146;SDS011;45999;48.808;9.182;2022-10-31T01:26:46;8.87;;;6.47;;
146;SDS011;45999;48.808;9.182;2022-10-31T01:29:13;8.10;;;6.10;;
146;SDS011;45999;48.808;9.182;2022-10-31T01:31:39;11.70;;;6.50;;
146;SDS011;45999;48.808;9.182;2022-10-31T01:34:06;13.73;;;6.87;;
146;SDS011;45999;48.808;9.182;2022-10-31T01:36:33;10.53;;;6.73;;
146;SDS011;45999;48.808;9.182;2022-10-31T01:39:06;9.93;;;6.53;;
146;SDS011;45999;48.808;9.182;2022-10-31T01:41:34;10.30;;;6.20;;
146;SDS011;45999;48.808;9.182;2022-10-31T01:46:42;12.73;;;6.33;;
146;SDS011;45999;48.808;9.182;2022-10-31T01:49:17;12.30;;;7.07;;
146;SDS011;45999;48.808;9.182;2022-10-31T01:51:48;8.70;;;6.40;;
146;SDS011;45999;48.808;9.182;2022-10-31T01:54:20;7.17;;;6.10;;
146;SDS011;45999;48.808;9.182;2022-10-31T01:56:50;11.73;;;5.87;;
146;SDS011;45999;48.808;9.182;2022-10-31T01:59:21;12.17;;;6.17;;
146;SDS011;45999;48.808;9.182;2022-10-31T02:01:51;14.40;;;6.47;;
146;SDS011;45999;48.808;9.182;2022-10-31T02:04:19;8.87;;;6.83;;
146;SDS011;45999;48.808;9.182;2022-10-31T02:06:55;16.60;;;6.47;;
146;SDS011;45999;48.808;9.182;2022-10-31T02:09:26;12.03;;;6.60;;
146;SDS011;45999;48.808;9.182;2022-10-31T02:11:55;12.30;;;6.53;;
146;SDS011;45999;48.808;9.182;2022-10-31T02:14:24;8.37;;;6.20;;
146;SDS011;45999;48.808;9.182;2022-10-31T02:16:53;8.13;;;6.30;;
146;SDS011;45999;48.808;9.182;2022-10-31T02:19:26;9.73;;;6.43;;
146;SDS011;45999;48.808;9.182;2022-10-31T02:22:08;8.47;;;6.33;;
146;SDS011;45999;48.808;9.182;2022-10-31T02:28:00;9.13;;;6.03;;
146;SDS011;45999;48.808;9.182;2022-10-31T02:33:17;10.73;;;6.33;;
146;SDS011;45999;48.808;9.182;2022-10-31T02:38:28;10.13;;;5.93;;
146;SDS011;45999;48.808;9.182;2022-10-31T02:41:06;11.43;;;6.40;;
146;SDS011;45999;48.808;9.182;2022-10-31T02:43:51;9.97;;;6.17;;
146;SDS011;45999;48.808;9.182;2022-10-31T02:49:03;11.37;;;6.47;;
146;SDS011;45999;48.808;9.182;2022-10-31T02:51:35;9.40;;;6.60;;
146;SDS011;45999;48.808;9.182;2022-10-31T02:54:02;12.17;;;6.67;;
146;SDS011;45999;48.808;9.182;2022-10-31T02:56:28;10.23;;;6.03;;
146;SDS011;45999;48.808;9.182;2022-10-31T02:58:56;9.83;;;6.23;;
146;SDS011;45999;48.808;9.182;2022-10-31T03:04:16;10.53;;;5.67;;
146;SDS011;45999;48.808;9.182;2022-10-31T03:09:40;9.60;;;6.50;;
146;SDS011;45999;48.808;9.182;2022-10-31T03:12:37;8.33;;;5.90;;
146;SDS011;45999;48.808;9.182;2022-10-31T03:17:35;8.23;;;5.50;;
146;SDS011;45999;48.808;9.182;2022-10-31T03:20:06;10.80;;;6.37;;
146;SDS011;45999;48.808;9.182;2022-10-31T03:22:36;9.27;;;6.03;;
146;SDS011;45999;48.808;9.182;2022-10-31T03:25:05;9.07;;;6.17;;
146;SDS011;45999;48.808;9.182;2022-10-31T03:27:33;9.57;;;5.70;;
146;SDS011;45999;48.808;9.182;2022-10-31T03:30:03;10.03;;;5.57;;
146;SDS011;45999;48.808;9.182;2022-10-31T03:32:39;10.10;;;6.40;;
146;SDS011;45999;48.808;9.182;2022-10-31T03:35:11;8.83;;;5.73;;
146;SDS011;45999;48.808;9.182;2022-10-31T03:37:41;8.77;;;6.10;;
146;SDS011;45999;48.808;9.182;2022-10-31T03:40:08;7.97;;;5.77;;
146;SDS011;45999;48.808;9.182;2022-10-31T03:42:39;8.23;;;5.63;;
146;SDS011;45999;48.808;9.182;2022-10-31T03:45:23;12.07;;;5.93;;
146;SDS011;45999;48.808;9.182;2022-10-31T03:47:51;10.30;;;5.53;;
146;SDS011;45999;48.808;9.182;2022-10-31T03:50:20;6.30;;;5.67;;
146;SDS011;45999;48.808;9.182;2022-10-31T03:55:40;12.70;;;5.83;;
146;SDS011;45999;48.808;9.182;2022-10-31T03:58:21;10.53;;;6.03;;
146;SDS011;45999;48.808;9.182;2022-10-31T04:00:51;10.90;;;6.00;;
146;SDS011;45999;48.808;9.182;2022-10-31T04:03:25;9.53;;;5.33;;
146;SDS011;45999;48.808;9.182;2022-10-31T04:05:55;8.43;;;5.40;;
146;SDS011;45999;48.808;9.182;2022-10-31T04:08:25;9.37;;;5.40;;
146;SDS011;45999;48.808;9.182;2022-10-31T04:10:54;8.83;;;5.37;;
146;SDS011;45999;48.808;9.182;2022-10-31T04:13:24;9.53;;;5.73;;
146;SDS011;45999;48.808;9.182;2022-10-31T04:15:54;8.50;;;5.17;;
146;SDS011;45999;48.808;9.182;2022-10-31T04:18:22;8.33;;;5.40;;
146;SDS011;45999;48.808;9.182;2022-10-31T04:20:58;8.30;;;5.47;;
146;SDS011;45999;48.808;9.182;2022-10-31T04:23:32;9.10;;;5.23;;
146;SDS011;45999;48.808;9.182;2022-10-31T04:25:59;7.30;;;5.77;;
146;SDS011;45999;48.808;9.182;2022-10-31T04:28:26;7.97;;;5.97;;
146;SDS011;45999;48.808;9.182;2022-10-31T04:30:53;10.27;;;6.13;;
146;SDS011;45999;48.808;9.182;2022-10-31T04:33:20;6.97;;;5.47;;
146;SDS011;45999;48.808;9.182;2022-10-31T04:35:46;7.03;;;5.60;;
146;SDS011;45999;48.808;9.182;2022-10-31T04:38:12;11.53;;;6.00;;
146;SDS011;45999;48.808;9.182;2022-10-31T04:40:39;11.50;;;5.73;;
146;SDS011;45999;48.808;9.182;2022-10-31T04:43:05;8.87;;;5.77;;
146;SDS011;45999;48.808;9.182;2022-10-31T04:45:32;6.67;;;5.47;;
146;SDS011;45999;48.808;9.182;2022-10-31T04:47:58;10.83;;;6.37;;
146;SDS011;45999;48.808;9.182;2022-10-31T04:50:24;8.63;;;6.33;;
146;SDS011;45999;48.808;9.182;2022-10-31T04:52:51;9.07;;;5.70;;
146;SDS011;45999;48.808;9.182;2022-10-31T04:55:17;7.07;;;5.80;;
146;SDS011;45999;48.808;9.182;2022-10-31T04:57:44;10.27;;;5.70;;
146;SDS011;45999;48.808;9.182;2022-10-31T05:00:12;9.30;;;5.63;;
146;SDS011;45999;48.808;9.182;2022-10-31T05:02:50;7.77;;;5.90;;
146;SDS011;45999;48.808;9.182;2022-10-31T05:05:20;8.80;;;5.73;;
146;SDS011;45999;48.808;9.182;2022-10-31T05:07:49;8.33;;;5.73;;
146;SDS011;45999;48.808;9.182;2022-10-31T05:10:17;9.73;;;6.37;;
146;SDS011;45999;48.808;9.182;2022-10-31T05:12:48;7.70;;;5.70;;
146;SDS011;45999;48.808;9.182;2022-10-31T05:15:16;10.17;;;5.47;;
146;SDS011;45999;48.808;9.182;2022-10-31T05:17:44;11.80;;;5.93;;
146;SDS011;45999;48.808;9.182;2022-10-31T05:20:11;9.43;;;5.30;;
146;SDS011;45999;48.808;9.182;2022-10-31T05:22:42;7.80;;;5.43;;
146;SDS011;45999;48.808;9.182;2022-10-31T05:25:10;9.63;;;5.70;;
146;SDS011;45999;48.808;9.182;2022-10-31T05:27:44;10.40;;;5.77;;
146;SDS011;45999;48.808;9.182;2022-10-31T05:30:12;9.43;;;5.73;;
146;SDS011;45999;48.808;9.182;2022-10-31T05:32:41;9.10;;;5.43;;
146;SDS011;45999;48.808;9.182;2022-10-31T05:35:12;8.80;;;5.80;;
146;SDS011;45999;48.808;9.182;2022-10-31T05:37:40;8.73;;;5.70;;
146;SDS011;45999;48.808;9.182;2022-10-31T05:40:07;8.87;;;5.47;;
146;SDS011;45999;48.808;9.182;2022-10-31T05:42:35;6.37;;;4.90;;
146;SDS011;45999;48.808;9.182;2022-10-31T05:45:05;11.67;;;5.00;;
146;SDS011;45999;48.808;9.182;2022-10-31T05:47:32;10.10;;;5.93;;
146;SDS011;45999;48.808;9.182;2022-10-31T05:49:58;7.07;;;5.17;;
146;SDS011;45999;48.808;9.182;2022-10-31T05:52:25;7.83;;;5.47;;
146;SDS011;45999;48.808;9.182;2022-10-31T05:54:51;10.37;;;5.53;;
146;SDS011;45999;48.808;9.182;2022-10-31T05:57:17;9.27;;;5.23;;
146;SDS011;45999;48.808;9.182;2022-10-31T05:59:44;10.10;;;5.57;;
146;SDS011;45999;48.808;9.182;2022-10-31T06:02:10;7.97;;;5.93;;
146;SDS011;45999;48.808;9.182;2022-10-31T06:04:37;9.37;;;5.93;;
146;SDS011;45999;48.808;9.182;2022-10-31T06:07:03;13.00;;;6.63;;
146;SDS011;45999;48.808;9.182;2022-10-31T06:09:29;8.07;;;6.13;;
146;SDS011;45999;48.808;9.182;2022-10-31T06:11:56;7.73;;;5.80;;
146;SDS011;45999;48.808;9.182;2022-10-31T06:14:22;8.97;;;5.37;;
146;SDS011;45999;48.808;9.182;2022-10-31T06:16:48;9.57;;;5.57;;
146;SDS011;45999;48.808;9.182;2022-10-31T06:19:15;9.30;;;5.30;;
146;SDS011;45999;48.808;9.182;2022-10-31T06:21:41;10.53;;;6.07;;
146;SDS011;45999;48.808;9.182;2022-10-31T06:24:07;9.40;;;5.60;;
146;SDS011;45999;48.808;9.182;2022-10-31T06:26:34;9.70;;;5.40;;
146;SDS011;45999;48.808;9.182;2022-10-31T06:29:00;7.87;;;5.87;;
146;SDS011;45999;48.808;9.182;2022-10-31T06:31:26;8.67;;;5.67;;
146;SDS011;45999;48.808;9.182;2022-10-31T06:33:53;12.40;;;5.77;;
146;SDS011;45999;48.808;9.182;2022-10-31T06:36:19;8.20;;;5.33;;
146;SDS011;45999;48.808;9.182;2022-10-31T06:38:45;11.77;;;5.47;;
146;SDS011;45999;48.808;9.182;2022-10-31T06:41:12;9.20;;;5.67;;
146;SDS011;45999;48.808;9.182;2022-10-31T06:43:38;9.70;;;6.57;;
146;SDS011;45999;48.808;9.182;2022-10-31T06:46:04;12.30;;;5.60;;
146;SDS011;45999;48.808;9.182;2022-10-31T06:48:31;7.80;;;5.47;;
146;SDS011;45999;48.808;9.182;2022-10-31T06:50:58;8.30;;;5.70;;
146;SDS011;45999;48.808;9.182;2022-10-31T06:53:25;6.03;;;4.97;;
146;SDS011;45999;48.808;9.182;2022-10-31T06:55:55;8.60;;;5.67;;
146;SDS011;45999;48.808;9.182;2022-10-31T06:58:22;10.17;;;5.73;;
146;SDS011;45999;48.808;9.182;2022-10-31T07:00:48;9.67;;;5.40;;
146;SDS011;45999;48.808;9.182;2022-10-31T07:03:15;10.63;;;5.70;;
146;SDS011;45999;48.808;9.182;2022-10-31T07:05:42;7.90;;;5.40;;
146;SDS011;45999;48.808;9.182;2022-10-31T07:08:12;6.47;;;5.10;;
146;SDS011;45999;48.808;9.182;2022-10-31T07:10:40;10.80;;;5.17;;
146;SDS011;45999;48.808;9.182;2022-10-31T07:13:14;8.47;;;5.00;;
146;SDS011;45999;48.808;9.182;2022-10-31T07:15:41;10.43;;;5.17;;
146;SDS011;45999;48.808;9.182;2022-10-31T07:18:09;6.67;;;5.10;;
146;SDS011;45999;48.808;9.182;2022-10-31T07:20:37;8.70;;;5.03;;
146;SDS011;45999;48.808;9.182;2022-10-31T07:23:03;7.73;;;5.10;;
146;SDS011;45999;48.808;9.182;2022-10-31T07:25:30;8.80;;;5.30;;
146;SDS011;45999;48.808;9.182;2022-10-31T07:27:56;10.27;;;4.80;;
146;SDS011;45999;48.808;9.182;2022-10-31T07:30:23;8.87;;;4.93;;
146;SDS011;45999;48.808;9.182;2022-10-31T07:32:49;8.73;;;4.97;;
146;SDS011;45999;48.808;9.182;2022-10-31T07:35:17;6.60;;;4.47;;
146;SDS011;45999;48.808;9.182;2022-10-31T07:37:46;11.40;;;5.03;;
146;SDS011;45999;48.808;9.182;2022-10-31T07:40:12;9.53;;;4.60;;
146;SDS011;45999;48.808;9.182;2022-10-31T07:42:40;9.37;;;4.70;;
146;SDS011;45999;48.808;9.182;2022-10-31T07:45:09;7.13;;;4.70;;
146;SDS011;45999;48.808;9.182;2022-10-31T07:50:08;10.07;;;4.30;;
146;SDS011;45999;48.808;9.182;2022-10-31T07:52:35;7.83;;;4.63;;
146;SDS011;45999;48.808;9.182;2022-10-31T07:55:03;8.63;;;4.40;;
146;SDS011;45999;48.808;9.182;2022-10-31T07:57:30;7.73;;;5.03;;
146;SDS011;45999;48.808;9.182;2022-10-31T07:59:56;7.63;;;5.00;;
146;SDS011;45999;48.808;9.182;2022-10-31T08:02:22;10.77;;;5.00;;
146;SDS011;45999;48.808;9.182;2022-10-31T08:04:49;6.30;;;4.40;;
146;SDS011;45999;48.808;9.182;2022-10-31T08:07:16;7.83;;;5.30;;
146;SDS011;45999;48.808;9.182;2022-10-31T08:09:42;7.50;;;4.43;;
146;SDS011;45999;48.808;9.182;2022-10-31T08:12:09;9.80;;;5.20;;
146;SDS011;45999;48.808;9.182;2022-10-31T08:14:35;8.10;;;4.80;;
146;SDS011;45999;48.808;9.182;2022-10-31T08:17:01;10.20;;;4.87;;
146;SDS011;45999;48.808;9.182;2022-10-31T08:19:28;6.13;;;4.60;;
146;SDS011;45999;48.808;9.182;2022-10-31T08:21:54;8.90;;;4.87;;
146;SDS011;45999;48.808;9.182;2022-10-31T08:24:22;7.83;;;4.80;;
146;SDS011;45999;48.808;9.182;2022-10-31T08:26:48;11.33;;;5.30;;
146;SDS011;45999;48.808;9.182;2022-10-31T08:29:14;5.83;;;4.60;;
146;SDS011;45999;48.808;9.182;2022-10-31T08:31:41;7.57;;;4.77;;
146;SDS011;45999;48.808;9.182;2022-10-31T08:34:08;8.63;;;4.80;;
146;SDS011;45999;48.808;9.182;2022-10-31T08:36:35;8.83;;;4.77;;
146;SDS011;45999;48.808;9.182;2022-10-31T08:39:01;8.13;;;4.57;;
146;SDS011;45999;48.808;9.182;2022-10-31T08:41:28;10.13;;;5.60;;
146;SDS011;45999;48.808;9.182;2022-10-31T08:43:55;8.30;;;5.07;;
146;SDS011;45999;48.808;9.182;2022-10-31T08:46:21;12.70;;;5.20;;
146;SDS011;45999;48.808;9.182;2022-10-31T08:48:48;8.03;;;4.47;;
146;SDS011;45999;48.808;9.182;2022-10-31T08:51:14;9.53;;;5.20;;
146;SDS011;45999;48.808;9.182;2022-10-31T08:53:41;9.60;;;4.90;;
146;SDS011;45999;48.808;9.182;2022-10-31T08:56:07;9.37;;;4.70;;
146;SDS011;45999;48.808;9.182;2022-10-31T08:58:33;7.67;;;4.50;;
146;SDS011;45999;48.808;9.182;2022-10-31T09:01:00;9.73;;;4.67;;
146;SDS011;45999;48.808;9.182;2022-10-31T09:03:28;10.13;;;5.43;;
146;SDS011;45999;48.808;9.182;2022-10-31T09:06:00;10.10;;;4.77;;
146;SDS011;45999;48.808;9.182;2022-10-31T09:08:31;11.20;;;5.27;;
146;SDS011;45999;48.808;9.182;2022-10-31T09:10:58;13.13;;;5.53;;
146;SDS011;45999;48.808;9.182;2022-10-31T09:13:25;12.63;;;4.63;;
146;SDS011;45999;48.808;9.182;2022-10-31T09:15:51;10.57;;;5.43;;
146;SDS011;45999;48.808;9.182;2022-10-31T09:18:20;6.10;;;4.50;;
146;SDS011;45999;48.808;9.182;2022-10-31T09:20:48;7.97;;;5.13;;
146;SDS011;45999;48.808;9.182;2022-10-31T09:25:46;10.10;;;5.37;;
146;SDS011;45999;48.808;9.182;2022-10-31T09:28:15;7.63;;;5.47;;
146;SDS011;45999;48.808;9.182;2022-10-31T09:30:45;8.60;;;5.20;;
146;SDS011;45999;48.808;9.182;2022-10-31T09:33:13;7.77;;;5.90;;
146;SDS011;45999;48.808;9.182;2022-10-31T09:35:40;9.63;;;5.10;;
146;SDS011;45999;48.808;9.182;2022-10-31T09:38:11;10.33;;;5.33;;
146;SDS011;45999;48.808;9.182;2022-10-31T09:40:57;10.93;;;5.37;;
146;SDS011;45999;48.808;9.182;2022-10-31T09:43:40;7.67;;;5.03;;
146;SDS011;45999;48.808;9.182;2022-10-31T09:46:29;10.30;;;5.13;;
146;SDS011;45999;48.808;9.182;2022-10-31T09:49:20;10.77;;;5.10;;
146;SDS011;45999;48.808;9.182;2022-10-31T09:52:20;5.97;;;5.00;;
146;SDS011;45999;48.808;9.182;2022-10-31T09:55:00;8.23;;;5.17;;
146;SDS011;45999;48.808;9.182;2022-10-31T09:57:32;8.90;;;5.40;;
146;SDS011;45999;48.808;9.182;2022-10-31T10:00:03;7.53;;;5.77;;
146;SDS011;45999;48.808;9.182;2022-10-31T10:02:34;7.77;;;5.80;;
146;SDS011;45999;48.808;9.182;2022-10-31T10:05:08;12.63;;;5.23;;
146;SDS011;45999;48.808;9.182;2022-10-31T10:10:25;9.07;;;5.97;;
146;SDS011;45999;48.808;9.182;2022-10-31T10:16:17;12.63;;;6.10;;
146;SDS011;45999;48.808;9.182;2022-10-31T10:21:45;8.47;;;5.37;;
146;SDS011;45999;48.808;9.182;2022-10-31T10:27:46;12.03;;;5.30;;
146;SDS011;45999;48.808;9.182;2022-10-31T10:30:16;9.67;;;5.63;;
146;SDS011;45999;48.808;9.182;2022-10-31T10:32:46;10.60;;;5.43;;
146;SDS011;45999;48.808;9.182;2022-10-31T10:37:42;13.20;;;5.97;;
146;SDS011;45999;48.808;9.182;2022-10-31T10:42:50;7.40;;;5.47;;
146;SDS011;45999;48.808;9.182;2022-10-31T10:45:42;13.30;;;5.97;;
146;SDS011;45999;48.808;9.182;2022-10-31T10:48:42;12.13;;;5.60;;
146;SDS011;45999;48.808;9.182;2022-10-31T10:54:22;8.03;;;5.40;;
146;SDS011;45999;48.808;9.182;2022-10-31T11:00:05;9.60;;;5.77;;
146;SDS011;45999;48.808;9.182;2022-10-31T11:02:42;10.87;;;6.33;;
146;SDS011;45999;48.808;9.182;2022-10-31T11:05:13;9.33;;;5.50;;
146;SDS011;45999;48.808;9.182;2022-10-31T11:07:44;9.57;;;5.50;;
146;SDS011;45999;48.808;9.182;2022-10-31T11:10:14;10.80;;;6.13;;
146;SDS011;45999;48.808;9.182;2022-10-31T11:12:45;10.30;;;5.80;;
146;SDS011;45999;48.808;9.182;2022-10-31T11:15:26;10.93;;;5.77;;
146;SDS011;45999;48.808;9.182;2022-10-31T11:17:54;8.83;;;5.60;;
146;SDS011;45999;48.808;9.182;2022-10-31T11:20:24;9.97;;;5.77;;
146;SDS011;45999;48.808;9.182;2022-10-31T11:23:15;9.43;;;6.03;;
146;SDS011;45999;48.808;9.182;2022-10-31T11:25:54;12.83;;;5.83;;
146;SDS011;45999;48.808;9.182;2022-10-31T11:28:22;8.57;;;5.60;;
146;SDS011;45999;48.808;9.182;2022-10-31T11:33:27;9.60;;;6.27;;
146;SDS011;45999;48.808;9.182;2022-10-31T11:35:58;9.70;;;5.77;;
146;SDS011;45999;48.808;9.182;2022-10-31T11:38:29;8.50;;;5.70;;
146;SDS011;45999;48.808;9.182;2022-10-31T11:41:03;12.03;;;6.17;;
146;SDS011;45999;48.808;9.182;2022-10-31T11:43:48;8.10;;;6.00;;
146;SDS011;45999;48.808;9.182;2022-10-31T11:49:24;10.33;;;5.87;;
146;SDS011;45999;48.808;9.182;2022-10-31T11:51:56;7.87;;;6.00;;
146;SDS011;45999;48.808;9.182;2022-10-31T11:54:31;9.67;;;6.10;;
146;SDS011;45999;48.808;9.182;2022-10-31T11:57:05;10.80;;;6.03;;
146;SDS011;45999;48.808;9.182;2022-10-31T11:59:50;11.00;;;5.60;;
146;SDS011;45999;48.808;9.182;2022-10-31T12:02:19;8.37;;;5.80;;
146;SDS011;45999;48.808;9.182;2022-10-31T12:07:34;12.73;;;5.77;;
146;SDS011;45999;48.808;9.182;2022-10-31T12:10:00;12.30;;;5.80;;
146;SDS011;45999;48.808;9.182;2022-10-31T12:13:13;8.67;;;5.77;;
146;SDS011;45999;48.808;9.182;2022-10-31T12:15:22;9.27;;;5.93;;
146;SDS011;45999;48.808;9.182;2022-10-31T12:23:33;12.70;;;6.00;;
146;SDS011;45999;48.808;9.182;2022-10-31T12:28:38;10.87;;;6.00;;
146;SDS011;45999;48.808;9.182;2022-10-31T12:31:37;10.70;;;5.90;;
146;SDS011;45999;48.808;9.182;2022-10-31T12:34:30;7.87;;;5.70;;
146;SDS011;45999;48.808;9.182;2022-10-31T12:37:32;9.50;;;5.90;;
146;SDS011;45999;48.808;9.182;2022-10-31T12:46:00;12.67;;;6.30;;
146;SDS011;45999;48.808;9.182;2022-10-31T12:51:19;12.43;;;6.83;;
146;SDS011;45999;48.808;9.182;2022-10-31T13:04:48;10.47;;;6.37;;
146;SDS011;45999;48.808;9.182;2022-10-31T13:07:41;12.90;;;6.93;;
146;SDS011;45999;48.808;9.182;2022-10-31T13:12:38;10.00;;;6.77;;
146;SDS011;45999;48.808;9.182;2022-10-31T13:15:27;13.37;;;7.47;;
146;SDS011;45999;48.808;9.182;2022-10-31T13:17:56;12.23;;;6.87;;
146;SDS011;45999;48.808;9.182;2022-10-31T13:20:29;11.50;;;6.87;;
146;SDS011;45999;48.808;9.182;2022-10-31T13:23:09;11.37;;;6.73;;
146;SDS011;45999;48.808;9.182;2022-10-31T13:25:45;12.90;;;6.87;;
146;SDS011;45999;48.808;9.182;2022-10-31T13:28:24;8.23;;;6.30;;
146;SDS011;45999;48.808;9.182;2022-10-31T13:30:52;11.37;;;6.53;;
146;SDS011;45999;48.808;9.182;2022-10-31T13:33:26;11.43;;;6.90;;
146;SDS011;45999;48.808;9.182;2022-10-31T13:39:06;11.03;;;6.77;;
146;SDS011;45999;48.808;9.182;2022-10-31T13:44:32;12.23;;;6.80;;
146;SDS011;45999;48.808;9.182;2022-10-31T13:47:02;10.70;;;6.70;;
146;SDS011;45999;48.808;9.182;2022-10-31T13:57:18;11.03;;;6.43;;
146;SDS011;45999;48.808;9.182;2022-10-31T13:59:52;12.20;;;6.67;;
146;SDS011;45999;48.808;9.182;2022-10-31T14:02:43;14.67;;;7.20;;
146;SDS011;45999;48.808;9.182;2022-10-31T14:05:51;14.70;;;7.07;;
146;SDS011;45999;48.808;9.182;2022-10-31T14:08:04;11.33;;;6.33;;
146;SDS011;45999;48.808;9.182;2022-10-31T14:10:48;11.27;;;6.70;;
146;SDS011;45999;48.808;9.182;2022-10-31T14:13:26;13.60;;;6.67;;
146;SDS011;45999;48.808;9.182;2022-10-31T14:15:58;10.60;;;6.40;;
146;SDS011;45999;48.808;9.182;2022-10-31T14:18:37;10.80;;;6.83;;
146;SDS011;45999;48.808;9.182;2022-10-31T14:23:50;13.53;;;6.70;;
146;SDS011;45999;48.808;9.182;2022-10-31T14:28:51;10.97;;;6.30;;
146;SDS011;45999;48.808;9.182;2022-10-31T14:33:56;12.10;;;6.47;;
146;SDS011;45999;48.808;9.182;2022-10-31T14:36:27;9.03;;;6.40;;
146;SDS011;45999;48.808;9.182;2022-10-31T14:39:17;10.90;;;6.47;;
146;SDS011;45999;48.808;9.182;2022-10-31T14:44:56;12.23;;;6.70;;
146;SDS011;45999;48.808;9.182;2022-10-31T14:47:43;9.77;;;6.83;;
146;SDS011;45999;48.808;9.182;2022-10-31T14:52:51;12.20;;;6.27;;
146;SDS011;45999;48.808;9.182;2022-10-31T14:55:20;10.67;;;6.00;;
146;SDS011;45999;48.808;9.182;2022-10-31T14:57:55;10.50;;;6.70;;
146;SDS011;45999;48.808;9.182;2022-10-31T15:00:26;11.37;;;6.70;;
146;SDS011;45999;48.808;9.182;2022-10-31T15:03:03;10.43;;;6.30;;
146;SDS011;45999;48.808;9.182;2022-10-31T15:05:40;15.17;;;7.23;;
146;SDS011;45999;48.808;9.182;2022-10-31T15:08:29;16.00;;;7.97;;
146;SDS011;45999;48.808;9.182;2022-10-31T15:10:55;10.43;;;7.07;;
146;SDS011;45999;48.808;9.182;2022-10-31T15:13:22;13.10;;;7.47;;
146;SDS011;45999;48.808;9.182;2022-10-31T15:15:52;10.70;;;6.57;;
146;SDS011;45999;48.808;9.182;2022-10-31T15:18:24;13.67;;;7.17;;
146;SDS011;45999;48.808;9.182;2022-10-31T15:20:53;14.10;;;6.77;;
146;SDS011;45999;48.808;9.182;2022-10-31T15:23:23;11.63;;;6.10;;
146;SDS011;45999;48.808;9.182;2022-10-31T15:25:57;14.77;;;6.50;;
146;SDS011;45999;48.808;9.182;2022-10-31T15:28:25;15.83;;;6.57;;
146;SDS011;45999;48.808;9.182;2022-10-31T15:30:53;11.27;;;6.17;;
146;SDS011;45999;48.808;9.182;2022-10-31T15:33:25;8.63;;;6.10;;
146;SDS011;45999;48.808;9.182;2022-10-31T15:35:56;12.40;;;6.23;;
146;SDS011;45999;48.808;9.182;2022-10-31T15:38:25;12.97;;;7.20;;
146;SDS011;45999;48.808;9.182;2022-10-31T15:40:53;9.97;;;6.87;;
146;SDS011;45999;48.808;9.182;2022-10-31T15:43:34;9.63;;;6.60;;
146;SDS011;45999;48.808;9.182;2022-10-31T15:46:03;15.40;;;7.10;;
146;SDS011;45999;48.808;9.182;2022-10-31T15:48:33;11.77;;;6.90;;
146;SDS011;45999;48.808;9.182;2022-10-31T15:50:59;12.40;;;7.20;;
146;SDS011;45999;48.808;9.182;2022-10-31T15:53:30;13.50;;;7.03;;
146;SDS011;45999;48.808;9.182;2022-10-31T15:56:04;14.80;;;7.40;;
146;SDS011;45999;48.808;9.182;2022-10-31T15:58:39;15.93;;;7.10;;
146;SDS011;45999;48.808;9.182;2022-10-31T16:01:19;12.00;;;7.07;;
146;SDS011;45999;48.808;9.182;2022-10-31T16:03:57;13.10;;;7.33;;
146;SDS011;45999;48.808;9.182;2022-10-31T16:06:24;13.47;;;8.17;;
146;SDS011;45999;48.808;9.182;2022-10-31T16:08:50;12.13;;;8.20;;
146;SDS011;45999;48.808;9.182;2022-10-31T16:11:38;14.83;;;7.70;;
146;SDS011;45999;48.808;9.182;2022-10-31T16:16:44;14.77;;;8.63;;
146;SDS011;45999;48.808;9.182;2022-10-31T16:19:18;13.70;;;7.87;;
146;SDS011;45999;48.808;9.182;2022-10-31T16:21:52;14.90;;;8.90;;
146;SDS011;45999;48.808;9.182;2022-10-31T16:24:25;13.97;;;8.37;;
146;SDS011;45999;48.808;9.182;2022-10-31T16:26:55;14.23;;;8.20;;
146;SDS011;45999;48.808;9.182;2022-10-31T16:37:39;15.77;;;8.83;;
146;SDS011;45999;48.808;9.182;2022-10-31T16:40:06;13.27;;;9.20;;
146;SDS011;45999;48.808;9.182;2022-10-31T16:42:34;14.10;;;9.87;;
146;SDS011;45999;48.808;9.182;2022-10-31T16:45:00;16.30;;;10.13;;
146;SDS011;45999;48.808;9.182;2022-10-31T16:47:26;17.43;;;9.57;;
146;SDS011;45999;48.808;9.182;2022-10-31T16:49:53;15.53;;;9.57;;
146;SDS011;45999;48.808;9.182;2022-10-31T16:52:19;16.90;;;9.93;;
146;SDS011;45999;48.808;9.182;2022-10-31T16:54:46;14.27;;;8.97;;
146;SDS011;45999;48.808;9.182;2022-10-31T16:57:14;14.50;;;9.53;;
146;SDS011;45999;48.808;9.182;2022-10-31T16:59:42;14.10;;;8.80;;
146;SDS011;45999;48.808;9.182;2022-10-31T17:02:12;18.90;;;9.73;;
146;SDS011;45999;48.808;9.182;2022-10-31T17:04:41;10.73;;;8.83;;
146;SDS011;45999;48.808;9.182;2022-10-31T17:07:07;17.37;;;9.10;;
146;SDS011;45999;48.808;9.182;2022-10-31T17:09:33;14.97;;;9.97;;
146;SDS011;45999;48.808;9.182;2022-10-31T17:12:00;14.90;;;9.40;;
146;SDS011;45999;48.808;9.182;2022-10-31T17:14:26;13.20;;;8.80;;
146;SDS011;45999;48.808;9.182;2022-10-31T17:16:53;14.00;;;9.30;;
146;SDS011;45999;48.808;9.182;2022-10-31T17:19:20;16.90;;;9.77;;
146;SDS011;45999;48.808;9.182;2022-10-31T17:21:46;14.20;;;9.20;;
146;SDS011;45999;48.808;9.182;2022-10-31T17:24:13;18.07;;;10.63;;
146;SDS011;45999;48.808;9.182;2022-10-31T17:26:40;18.60;;;10.97;;
146;SDS011;45999;48.808;9.182;2022-10-31T17:29:07;15.83;;;10.47;;
146;SDS011;45999;48.808;9.182;2022-10-31T17:31:34;15.27;;;9.70;;
146;SDS011;45999;48.808;9.182;2022-10-31T17:34:03;14.00;;;9.33;;
146;SDS011;45999;48.808;9.182;2022-10-31T17:36:30;19.47;;;10.60;;
146;SDS011;45999;48.808;9.182;2022-10-31T17:38:58;17.87;;;9.57;;